sensor_id;sensor_type;location;lat;lon;timestamp;pressure;altitude;pressure_sealevel;temperature;humidity
69257;BME280;56376;53.356;-1.748;2022-08-19T00:01:50;98952.69;;;17.78;100.00
69257;BME280;56376;53.356;-1.748;2022-08-19T00:04:17;98977.22;;;17.80;99.99
69257;BME280;56376;53.356;-1.748;2022-08-19T00:06:44;98978.91;;;17.81;99.08
69257;BME280;56376;53.356;-1.748;2022-08-19T00:09:12;98976.69;;;17.74;97.93
69257;BME280;56376;53.356;-1.748;2022-08-19T00:11:38;98980.84;;;17.66;91.30
69257;BME280;56376;53.356;-1.748;2022-08-19T00:14:06;98971.19;;;17.53;87.10
69257;BME280;56376;53.356;-1.748;2022-08-19T00:16:32;98972.22;;;17.40;89.31
69257;BME280;56376;53.356;-1.748;2022-08-19T00:18:58;98972.50;;;17.24;87.88
69257;BME280;56376;53.356;-1.748;2022-08-19T00:21:24;98975.69;;;17.16;89.51
69257;BME280;56376;53.356;-1.748;2022-08-19T00:23:52;98983.09;;;17.11;89.03
69257;BME280;56376;53.356;-1.748;2022-08-19T00:26:18;98992.28;;;17.05;89.56
69257;BME280;56376;53.356;-1.748;2022-08-19T00:28:44;98978.19;;;16.94;89.86
69257;BME280;56376;53.356;-1.748;2022-08-19T00:31:10;98985.69;;;16.87;90.38
69257;BME280;56376;53.356;-1.748;2022-08-19T00:33:35;98982.44;;;16.83;90.37
69257;BME280;56376;53.356;-1.748;2022-08-19T00:36:04;98986.13;;;16.81;87.98
69257;BME280;56376;53.356;-1.748;2022-08-19T00:38:31;98986.50;;;16.75;84.69
69257;BME280;56376;53.356;-1.748;2022-08-19T00:40:57;98993.06;;;16.69;83.16
69257;BME280;56376;53.356;-1.748;2022-08-19T00:43:26;99007.84;;;16.59;82.61
69257;BME280;56376;53.356;-1.748;2022-08-19T00:45:52;98996.25;;;16.49;83.74
69257;BME280;56376;53.356;-1.748;2022-08-19T00:48:18;99008.59;;;16.48;82.75
69257;BME280;56376;53.356;-1.748;2022-08-19T00:50:45;99009.84;;;16.42;83.48
69257;BME280;56376;53.356;-1.748;2022-08-19T00:53:16;99017.44;;;16.47;81.19
69257;BME280;56376;53.356;-1.748;2022-08-19T00:55:45;99016.81;;;16.43;80.87
69257;BME280;56376;53.356;-1.748;2022-08-19T00:58:14;99011.19;;;16.35;81.82
69257;BME280;56376;53.356;-1.748;2022-08-19T01:00:40;99013.84;;;16.35;82.55
69257;BME280;56376;53.356;-1.748;2022-08-19T01:03:09;99017.22;;;16.37;82.53
69257;BME280;56376;53.356;-1.748;2022-08-19T01:05:36;99009.31;;;16.37;82.59
69257;BME280;56376;53.356;-1.748;2022-08-19T01:08:04;99014.50;;;16.39;80.01
69257;BME280;56376;53.356;-1.748;2022-08-19T01:10:33;99016.38;;;16.37;80.04
69257;BME280;56376;53.356;-1.748;2022-08-19T01:13:03;99016.59;;;16.34;80.66
69257;BME280;56376;53.356;-1.748;2022-08-19T01:15:32;99012.38;;;16.31;80.06
69257;BME280;56376;53.356;-1.748;2022-08-19T01:18:02;99017.75;;;16.30;80.07
69257;BME280;56376;53.356;-1.748;2022-08-19T01:20:29;99022.25;;;16.28;79.98
69257;BME280;56376;53.356;-1.748;2022-08-19T01:22:57;99030.38;;;16.25;80.82
69257;BME280;56376;53.356;-1.748;2022-08-19T01:25:45;99022.47;;;16.25;81.64
69257;BME280;56376;53.356;-1.748;2022-08-19T01:28:17;99031.34;;;16.23;82.15
69257;BME280;56376;53.356;-1.748;2022-08-19T01:30:43;99032.19;;;16.24;82.54
69257;BME280;56376;53.356;-1.748;2022-08-19T01:33:09;99035.56;;;16.26;82.72
69257;BME280;56376;53.356;-1.748;2022-08-19T01:35:35;99030.28;;;16.26;82.00
69257;BME280;56376;53.356;-1.748;2022-08-19T01:38:03;99047.03;;;16.25;82.57
69257;BME280;56376;53.356;-1.748;2022-08-19T01:40:33;99027.00;;;16.22;82.80
69257;BME280;56376;53.356;-1.748;2022-08-19T01:43:00;99032.28;;;16.22;83.10
69257;BME280;56376;53.356;-1.748;2022-08-19T01:45:27;99029.75;;;16.21;83.20
69257;BME280;56376;53.356;-1.748;2022-08-19T01:47:53;99023.53;;;16.22;83.30
69257;BME280;56376;53.356;-1.748;2022-08-19T01:50:19;99031.34;;;16.23;83.27
69257;BME280;56376;53.356;-1.748;2022-08-19T01:52:45;99038.50;;;16.21;82.55
69257;BME280;56376;53.356;-1.748;2022-08-19T01:55:14;99044.81;;;16.19;82.34
69257;BME280;56376;53.356;-1.748;2022-08-19T01:57:44;99046.94;;;16.14;83.13
69257;BME280;56376;53.356;-1.748;2022-08-19T02:00:14;99053.34;;;16.10;83.93
69257;BME280;56376;53.356;-1.748;2022-08-19T02:02:41;99047.34;;;16.08;84.54
69257;BME280;56376;53.356;-1.748;2022-08-19T02:05:07;99047.34;;;16.08;85.11
69257;BME280;56376;53.356;-1.748;2022-08-19T02:07:34;99050.91;;;16.07;85.66
69257;BME280;56376;53.356;-1.748;2022-08-19T02:10:06;99041.34;;;16.06;85.19
69257;BME280;56376;53.356;-1.748;2022-08-19T02:12:32;99045.75;;;16.05;84.00
69257;BME280;56376;53.356;-1.748;2022-08-19T02:14:59;99049.41;;;16.02;83.64
69257;BME280;56376;53.356;-1.748;2022-08-19T02:17:24;99062.59;;;16.02;82.31
69257;BME280;56376;53.356;-1.748;2022-08-19T02:19:50;99061.13;;;15.98;81.51
69257;BME280;56376;53.356;-1.748;2022-08-19T02:22:15;99062.91;;;15.98;81.29
69257;BME280;56376;53.356;-1.748;2022-08-19T02:24:40;99063.09;;;15.95;81.21
69257;BME280;56376;53.356;-1.748;2022-08-19T02:27:06;99070.28;;;15.93;81.36
69257;BME280;56376;53.356;-1.748;2022-08-19T02:29:31;99071.31;;;15.90;81.41
69257;BME280;56376;53.356;-1.748;2022-08-19T02:31:57;99075.72;;;15.90;81.70
69257;BME280;56376;53.356;-1.748;2022-08-19T02:34:23;99079.41;;;15.87;81.32
69257;BME280;56376;53.356;-1.748;2022-08-19T02:36:51;99078.47;;;15.88;80.55
69257;BME280;56376;53.356;-1.748;2022-08-19T02:39:17;99079.50;;;15.86;80.33
69257;BME280;56376;53.356;-1.748;2022-08-19T02:41:42;99075.38;;;15.82;80.24
69257;BME280;56376;53.356;-1.748;2022-08-19T02:44:08;99077.47;;;15.76;80.95
69257;BME280;56376;53.356;-1.748;2022-08-19T02:46:34;99085.50;;;15.75;80.77
69257;BME280;56376;53.356;-1.748;2022-08-19T02:49:04;99089.03;;;15.74;80.35
69257;BME280;56376;53.356;-1.748;2022-08-19T02:51:38;99083.91;;;15.72;80.83
69257;BME280;56376;53.356;-1.748;2022-08-19T02:54:06;99089.34;;;15.69;79.48
69257;BME280;56376;53.356;-1.748;2022-08-19T02:56:35;99082.44;;;15.67;77.87
69257;BME280;56376;53.356;-1.748;2022-08-19T02:59:01;99085.00;;;15.68;78.39
69257;BME280;56376;53.356;-1.748;2022-08-19T03:01:31;99083.28;;;15.67;78.78
69257;BME280;56376;53.356;-1.748;2022-08-19T03:03:58;99068.53;;;15.65;78.85
69257;BME280;56376;53.356;-1.748;2022-08-19T03:06:24;99087.16;;;15.62;78.72
69257;BME280;56376;53.356;-1.748;2022-08-19T03:08:51;99089.03;;;15.59;78.24
69257;BME280;56376;53.356;-1.748;2022-08-19T03:11:30;99091.13;;;15.54;78.21
69257;BME280;56376;53.356;-1.748;2022-08-19T03:13:57;99094.78;;;15.52;78.19
69257;BME280;56376;53.356;-1.748;2022-08-19T03:16:25;99094.91;;;15.50;78.40
69257;BME280;56376;53.356;-1.748;2022-08-19T03:18:52;99099.22;;;15.51;78.75
69257;BME280;56376;53.356;-1.748;2022-08-19T03:21:20;99102.69;;;15.52;78.08
69257;BME280;56376;53.356;-1.748;2022-08-19T03:23:47;99108.34;;;15.46;78.15
69257;BME280;56376;53.356;-1.748;2022-08-19T03:26:12;99100.53;;;15.44;77.65
69257;BME280;56376;53.356;-1.748;2022-08-19T03:28:43;99100.94;;;15.38;77.20
69257;BME280;56376;53.356;-1.748;2022-08-19T03:31:12;99089.94;;;15.31;77.68
69257;BME280;56376;53.356;-1.748;2022-08-19T03:33:39;99093.91;;;15.24;77.78
69257;BME280;56376;53.356;-1.748;2022-08-19T03:36:08;99117.91;;;15.20;78.37
69257;BME280;56376;53.356;-1.748;2022-08-19T03:38:44;99106.81;;;15.14;79.04
69257;BME280;56376;53.356;-1.748;2022-08-19T03:41:16;99114.88;;;15.11;79.38
69257;BME280;56376;53.356;-1.748;2022-08-19T03:43:42;99116.56;;;15.12;79.46
69257;BME280;56376;53.356;-1.748;2022-08-19T03:46:11;99112.63;;;15.05;79.50
69257;BME280;56376;53.356;-1.748;2022-08-19T03:48:38;99121.56;;;15.03;80.18
69257;BME280;56376;53.356;-1.748;2022-08-19T03:51:05;99124.19;;;15.03;80.66
69257;BME280;56376;53.356;-1.748;2022-08-19T03:53:32;99119.13;;;15.00;81.05
69257;BME280;56376;53.356;-1.748;2022-08-19T03:55:58;99120.03;;;14.99;81.45
69257;BME280;56376;53.356;-1.748;2022-08-19T03:58:29;99121.06;;;14.96;81.71
69257;BME280;56376;53.356;-1.748;2022-08-19T04:00:56;99119.38;;;14.95;81.60
69257;BME280;56376;53.356;-1.748;2022-08-19T04:03:23;99116.66;;;14.97;81.07
69257;BME280;56376;53.356;-1.748;2022-08-19T04:05:49;99120.69;;;14.88;81.11
69257;BME280;56376;53.356;-1.748;2022-08-19T04:08:15;99120.88;;;14.85;81.68
69257;BME280;56376;53.356;-1.748;2022-08-19T04:10:44;99117.56;;;14.81;82.19
69257;BME280;56376;53.356;-1.748;2022-08-19T04:13:09;99129.03;;;14.80;82.71
69257;BME280;56376;53.356;-1.748;2022-08-19T04:15:40;99127.44;;;14.78;83.36
69257;BME280;56376;53.356;-1.748;2022-08-19T04:18:08;99138.03;;;14.76;83.79
69257;BME280;56376;53.356;-1.748;2022-08-19T04:20:42;99132.97;;;14.73;84.52
69257;BME280;56376;53.356;-1.748;2022-08-19T04:23:07;99140.22;;;14.69;84.84
69257;BME280;56376;53.356;-1.748;2022-08-19T04:25:41;99140.38;;;14.66;85.14
69257;BME280;56376;53.356;-1.748;2022-08-19T04:28:08;99141.50;;;14.62;85.09
69257;BME280;56376;53.356;-1.748;2022-08-19T04:30:47;99134.91;;;14.55;85.48
69257;BME280;56376;53.356;-1.748;2022-08-19T04:33:15;99149.03;;;14.53;85.58
69257;BME280;56376;53.356;-1.748;2022-08-19T04:35:44;99153.47;;;14.52;85.15
69257;BME280;56376;53.356;-1.748;2022-08-19T04:38:11;99143.22;;;14.47;85.48
69257;BME280;56376;53.356;-1.748;2022-08-19T04:40:42;99151.16;;;14.46;85.59
69257;BME280;56376;53.356;-1.748;2022-08-19T04:43:27;99159.25;;;14.43;86.13
69257;BME280;56376;53.356;-1.748;2022-08-19T04:45:53;99155.97;;;14.39;85.99
69257;BME280;56376;53.356;-1.748;2022-08-19T04:48:18;99152.66;;;14.36;85.95
69257;BME280;56376;53.356;-1.748;2022-08-19T04:50:52;99158.09;;;14.33;86.04
69257;BME280;56376;53.356;-1.748;2022-08-19T04:53:26;99153.94;;;14.28;86.17
69257;BME280;56376;53.356;-1.748;2022-08-19T04:55:57;99163.78;;;14.25;86.35
69257;BME280;56376;53.356;-1.748;2022-08-19T04:58:24;99160.50;;;14.21;86.56
69257;BME280;56376;53.356;-1.748;2022-08-19T05:00:50;99161.50;;;14.19;87.00
69257;BME280;56376;53.356;-1.748;2022-08-19T05:03:16;99167.78;;;14.16;87.15
69257;BME280;56376;53.356;-1.748;2022-08-19T05:05:43;99167.94;;;14.13;86.77
69257;BME280;56376;53.356;-1.748;2022-08-19T05:08:09;99172.53;;;14.10;87.02
69257;BME280;56376;53.356;-1.748;2022-08-19T05:10:36;99184.97;;;14.06;87.02
69257;BME280;56376;53.356;-1.748;2022-08-19T05:13:02;99183.38;;;14.03;87.02
69257;BME280;56376;53.356;-1.748;2022-08-19T05:15:28;99182.53;;;14.03;86.77
69257;BME280;56376;53.356;-1.748;2022-08-19T05:17:53;99183.66;;;13.99;86.64
69257;BME280;56376;53.356;-1.748;2022-08-19T05:20:38;99179.47;;;13.95;86.71
69257;BME280;56376;53.356;-1.748;2022-08-19T05:23:23;99191.78;;;13.94;86.97
69257;BME280;56376;53.356;-1.748;2022-08-19T05:25:49;99195.41;;;13.92;87.22
69257;BME280;56376;53.356;-1.748;2022-08-19T05:28:15;99195.41;;;13.92;87.30
69257;BME280;56376;53.356;-1.748;2022-08-19T05:30:41;99191.19;;;13.89;87.50
69257;BME280;56376;53.356;-1.748;2022-08-19T05:33:08;99196.44;;;13.89;87.63
69257;BME280;56376;53.356;-1.748;2022-08-19T05:35:37;99208.78;;;13.87;87.75
69257;BME280;56376;53.356;-1.748;2022-08-19T05:38:03;99206.34;;;13.84;88.03
69257;BME280;56376;53.356;-1.748;2022-08-19T05:40:28;99203.78;;;13.82;87.76
69257;BME280;56376;53.356;-1.748;2022-08-19T05:42:54;99214.22;;;13.84;88.19
69257;BME280;56376;53.356;-1.748;2022-08-19T05:45:19;99219.38;;;13.85;88.60
69257;BME280;56376;53.356;-1.748;2022-08-19T05:47:46;99215.72;;;13.88;88.71
69257;BME280;56376;53.356;-1.748;2022-08-19T05:50:12;99221.84;;;13.89;88.90
69257;BME280;56376;53.356;-1.748;2022-08-19T05:52:38;99221.84;;;13.89;89.10
69257;BME280;56376;53.356;-1.748;2022-08-19T05:55:04;99225.22;;;13.91;89.48
69257;BME280;56376;53.356;-1.748;2022-08-19T05:57:30;99226.91;;;13.92;89.97
69257;BME280;56376;53.356;-1.748;2022-08-19T05:59:56;99225.06;;;13.94;90.19
69257;BME280;56376;53.356;-1.748;2022-08-19T06:02:22;99231.81;;;13.98;90.37
69257;BME280;56376;53.356;-1.748;2022-08-19T06:04:48;99230.72;;;14.02;90.62
69257;BME280;56376;53.356;-1.748;2022-08-19T06:07:14;99225.13;;;14.08;90.83
69257;BME280;56376;53.356;-1.748;2022-08-19T06:09:41;99221.16;;;14.17;91.06
69257;BME280;56376;53.356;-1.748;2022-08-19T06:12:06;99220.72;;;14.24;91.15
69257;BME280;56376;53.356;-1.748;2022-08-19T06:14:34;99209.69;;;14.34;90.96
69257;BME280;56376;53.356;-1.748;2022-08-19T06:17:01;99211.72;;;14.44;89.54
69257;BME280;56376;53.356;-1.748;2022-08-19T06:19:28;99220.69;;;14.56;88.08
69257;BME280;56376;53.356;-1.748;2022-08-19T06:21:56;99222.63;;;14.68;86.74
69257;BME280;56376;53.356;-1.748;2022-08-19T06:24:24;99218.50;;;14.79;85.40
69257;BME280;56376;53.356;-1.748;2022-08-19T06:26:52;99205.78;;;14.87;84.02
69257;BME280;56376;53.356;-1.748;2022-08-19T06:29:20;99221.09;;;14.95;83.49
69257;BME280;56376;53.356;-1.748;2022-08-19T06:31:48;99223.28;;;15.02;82.96
69257;BME280;56376;53.356;-1.748;2022-08-19T06:34:17;99230.72;;;15.10;82.31
69257;BME280;56376;53.356;-1.748;2022-08-19T06:36:47;99228.66;;;15.15;81.66
69257;BME280;56376;53.356;-1.748;2022-08-19T06:39:17;99235.25;;;15.22;80.44
69257;BME280;56376;53.356;-1.748;2022-08-19T06:41:46;99237.50;;;15.28;80.15
69257;BME280;56376;53.356;-1.748;2022-08-19T06:44:13;99238.16;;;15.32;79.76
69257;BME280;56376;53.356;-1.748;2022-08-19T06:46:39;99243.97;;;15.37;79.25
69257;BME280;56376;53.356;-1.748;2022-08-19T06:49:05;99237.78;;;15.38;78.60
69257;BME280;56376;53.356;-1.748;2022-08-19T06:51:31;99244.94;;;15.36;77.96
69257;BME280;56376;53.356;-1.748;2022-08-19T06:53:57;99240.63;;;15.35;77.96
69257;BME280;56376;53.356;-1.748;2022-08-19T06:56:26;99240.63;;;15.35;78.44
69257;BME280;56376;53.356;-1.748;2022-08-19T06:59:07;99240.50;;;15.36;78.25
69257;BME280;56376;53.356;-1.748;2022-08-19T07:01:48;99239.47;;;15.39;78.02
69257;BME280;56376;53.356;-1.748;2022-08-19T07:04:17;99236.47;;;15.45;77.66
69257;BME280;56376;53.356;-1.748;2022-08-19T07:06:44;99240.59;;;15.49;76.86
69257;BME280;56376;53.356;-1.748;2022-08-19T07:09:12;99235.75;;;15.57;76.32
69257;BME280;56376;53.356;-1.748;2022-08-19T07:11:38;99247.47;;;15.66;75.96
69257;BME280;56376;53.356;-1.748;2022-08-19T07:14:04;99243.75;;;15.70;76.18
69257;BME280;56376;53.356;-1.748;2022-08-19T07:16:31;99247.88;;;15.74;76.08
69257;BME280;56376;53.356;-1.748;2022-08-19T07:18:57;99246.56;;;15.82;75.51
69257;BME280;56376;53.356;-1.748;2022-08-19T07:21:29;99248.50;;;15.92;73.39
69257;BME280;56376;53.356;-1.748;2022-08-19T07:23:56;99241.44;;;16.07;73.05
69257;BME280;56376;53.356;-1.748;2022-08-19T07:26:30;99241.31;;;16.23;72.30
69257;BME280;56376;53.356;-1.748;2022-08-19T07:28:57;99246.44;;;16.39;71.59
69257;BME280;56376;53.356;-1.748;2022-08-19T07:31:25;99256.06;;;16.53;70.03
69257;BME280;56376;53.356;-1.748;2022-08-19T07:33:52;99249.91;;;16.66;69.71
69257;BME280;56376;53.356;-1.748;2022-08-19T07:36:23;99246.38;;;16.80;69.62
69257;BME280;56376;53.356;-1.748;2022-08-19T07:38:50;99247.06;;;16.97;69.12
69257;BME280;56376;53.356;-1.748;2022-08-19T07:41:28;99241.50;;;17.14;68.86
69257;BME280;56376;53.356;-1.748;2022-08-19T07:43:58;99241.59;;;17.25;67.45
69257;BME280;56376;53.356;-1.748;2022-08-19T07:46:24;99258.41;;;17.37;67.11
69257;BME280;56376;53.356;-1.748;2022-08-19T07:48:50;99262.94;;;17.48;67.18
69257;BME280;56376;53.356;-1.748;2022-08-19T07:51:19;99263.97;;;17.58;66.16
69257;BME280;56376;53.356;-1.748;2022-08-19T07:53:47;99266.91;;;17.66;65.21
69257;BME280;56376;53.356;-1.748;2022-08-19T07:56:13;99271.69;;;17.74;64.47
69257;BME280;56376;53.356;-1.748;2022-08-19T07:58:41;99262.22;;;17.84;64.60
69257;BME280;56376;53.356;-1.748;2022-08-19T08:01:09;99263.13;;;17.96;65.44
69257;BME280;56376;53.356;-1.748;2022-08-19T08:03:36;99270.31;;;18.07;64.01
69257;BME280;56376;53.356;-1.748;2022-08-19T08:06:20;99274.69;;;18.19;63.55
69257;BME280;56376;53.356;-1.748;2022-08-19T08:09:04;99280.38;;;18.26;62.74
69257;BME280;56376;53.356;-1.748;2022-08-19T08:11:42;99274.88;;;18.29;62.29
69257;BME280;56376;53.356;-1.748;2022-08-19T08:14:21;99282.56;;;18.32;62.42
69257;BME280;56376;53.356;-1.748;2022-08-19T08:16:48;99279.03;;;18.44;62.20
69257;BME280;56376;53.356;-1.748;2022-08-19T08:19:15;99283.44;;;18.56;61.40
69257;BME280;56376;53.356;-1.748;2022-08-19T08:21:41;99273.88;;;18.67;60.83
69257;BME280;56376;53.356;-1.748;2022-08-19T08:24:06;99277.56;;;18.77;59.27
69257;BME280;56376;53.356;-1.748;2022-08-19T08:26:32;99271.59;;;18.86;58.66
69257;BME280;56376;53.356;-1.748;2022-08-19T08:28:57;99282.34;;;18.96;58.42
69257;BME280;56376;53.356;-1.748;2022-08-19T08:31:23;99274.31;;;19.09;58.29
69257;BME280;56376;53.356;-1.748;2022-08-19T08:33:48;99283.34;;;19.17;57.65
69257;BME280;56376;53.356;-1.748;2022-08-19T08:36:14;99288.78;;;19.27;58.90
69257;BME280;56376;53.356;-1.748;2022-08-19T08:38:41;99288.94;;;19.37;57.68
69257;BME280;56376;53.356;-1.748;2022-08-19T08:43:45;99282.47;;;19.52;56.94
69257;BME280;56376;53.356;-1.748;2022-08-19T08:46:26;99289.22;;;19.56;56.73
69257;BME280;56376;53.356;-1.748;2022-08-19T08:49:04;99282.94;;;19.57;57.89
69257;BME280;56376;53.356;-1.748;2022-08-19T08:51:42;99290.06;;;19.57;57.44
69257;BME280;56376;53.356;-1.748;2022-08-19T08:54:11;99275.34;;;19.53;56.72
69257;BME280;56376;53.356;-1.748;2022-08-19T08:56:44;99283.78;;;19.46;56.47
69257;BME280;56376;53.356;-1.748;2022-08-19T08:59:40;99280.06;;;19.38;55.25
69257;BME280;56376;53.356;-1.748;2022-08-19T09:02:07;99293.84;;;19.30;54.82
69257;BME280;56376;53.356;-1.748;2022-08-19T09:04:37;99288.44;;;19.20;55.62
69257;BME280;56376;53.356;-1.748;2022-08-19T09:09:46;99286.47;;;19.11;56.89
69257;BME280;56376;53.356;-1.748;2022-08-19T09:12:41;99295.50;;;19.09;57.05
69257;BME280;56376;53.356;-1.748;2022-08-19T09:15:12;99291.75;;;19.11;57.50
69257;BME280;56376;53.356;-1.748;2022-08-19T09:17:38;99299.72;;;19.11;58.40
69257;BME280;56376;53.356;-1.748;2022-08-19T09:22:39;99296.66;;;19.05;57.92
69257;BME280;56376;53.356;-1.748;2022-08-19T09:25:07;99297.63;;;19.03;57.69
69257;BME280;56376;53.356;-1.748;2022-08-19T09:27:33;99300.28;;;19.03;57.43
69257;BME280;56376;53.356;-1.748;2022-08-19T09:30:00;99300.63;;;18.99;56.77
69257;BME280;56376;53.356;-1.748;2022-08-19T09:32:26;99298.31;;;18.94;57.08
69257;BME280;56376;53.356;-1.748;2022-08-19T09:34:52;99297.72;;;18.91;57.28
69257;BME280;56376;53.356;-1.748;2022-08-19T09:37:23;99298.78;;;18.88;57.67
69257;BME280;56376;53.356;-1.748;2022-08-19T09:39:49;99297.94;;;18.88;57.97
69257;BME280;56376;53.356;-1.748;2022-08-19T09:42:15;99305.19;;;18.97;57.87
69257;BME280;56376;53.356;-1.748;2022-08-19T09:44:41;99288.63;;;19.06;56.82
69257;BME280;56376;53.356;-1.748;2022-08-19T09:47:08;99297.78;;;19.13;55.20
69257;BME280;56376;53.356;-1.748;2022-08-19T09:49:34;99299.97;;;19.19;54.44
69257;BME280;56376;53.356;-1.748;2022-08-19T09:52:00;99306.09;;;19.20;53.77
69257;BME280;56376;53.356;-1.748;2022-08-19T09:54:26;99305.41;;;19.29;53.94
69257;BME280;56376;53.356;-1.748;2022-08-19T09:56:53;99303.88;;;19.38;54.03
69257;BME280;56376;53.356;-1.748;2022-08-19T09:59:19;99311.59;;;19.41;54.25
69257;BME280;56376;53.356;-1.748;2022-08-19T10:01:44;99309.44;;;19.46;52.96
69257;BME280;56376;53.356;-1.748;2022-08-19T10:04:10;99307.63;;;19.46;52.17
69257;BME280;56376;53.356;-1.748;2022-08-19T10:06:38;99300.88;;;19.42;51.66
69257;BME280;56376;53.356;-1.748;2022-08-19T10:09:06;99305.47;;;19.40;52.02
69257;BME280;56376;53.356;-1.748;2022-08-19T10:11:34;99307.72;;;19.45;52.96
69257;BME280;56376;53.356;-1.748;2022-08-19T10:14:03;99301.97;;;19.51;52.75
69257;BME280;56376;53.356;-1.748;2022-08-19T10:16:31;99301.13;;;19.51;51.70
69257;BME280;56376;53.356;-1.748;2022-08-19T10:18:56;99307.63;;;19.46;50.81
69257;BME280;56376;53.356;-1.748;2022-08-19T10:21:25;99308.09;;;19.40;50.74
69257;BME280;56376;53.356;-1.748;2022-08-19T10:23:54;99302.31;;;19.35;51.67
69257;BME280;56376;53.356;-1.748;2022-08-19T10:26:26;99303.25;;;19.34;52.03
69257;BME280;56376;53.356;-1.748;2022-08-19T10:28:53;99312.91;;;19.35;52.89
69257;BME280;56376;53.356;-1.748;2022-08-19T10:31:23;99313.84;;;19.34;53.40
69257;BME280;56376;53.356;-1.748;2022-08-19T10:33:49;99312.53;;;19.29;52.67
69257;BME280;56376;53.356;-1.748;2022-08-19T10:36:20;99306.97;;;19.20;52.60
69257;BME280;56376;53.356;-1.748;2022-08-19T10:38:49;99304.91;;;19.13;52.89
69257;BME280;56376;53.356;-1.748;2022-08-19T10:41:21;99306.06;;;19.09;52.37
69257;BME280;56376;53.356;-1.748;2022-08-19T10:43:50;99307.38;;;19.03;52.79
69257;BME280;56376;53.356;-1.748;2022-08-19T10:46:18;99314.25;;;19.06;52.99
69257;BME280;56376;53.356;-1.748;2022-08-19T10:48:44;99295.50;;;19.09;52.57
69257;BME280;56376;53.356;-1.748;2022-08-19T10:51:10;99308.38;;;19.13;51.46
69257;BME280;56376;53.356;-1.748;2022-08-19T10:53:55;99294.91;;;19.16;50.34
69257;BME280;56376;53.356;-1.748;2022-08-19T10:56:21;99304.31;;;19.20;50.74
69257;BME280;56376;53.356;-1.748;2022-08-19T10:59:05;99302.28;;;19.24;51.18
69257;BME280;56376;53.356;-1.748;2022-08-19T11:01:32;99296.88;;;19.26;50.12
69257;BME280;56376;53.356;-1.748;2022-08-19T11:04:00;99297.94;;;19.23;49.62
69257;BME280;56376;53.356;-1.748;2022-08-19T11:06:25;99285.56;;;19.23;50.78
69257;BME280;56376;53.356;-1.748;2022-08-19T11:08:54;99288.44;;;19.32;52.01
69257;BME280;56376;53.356;-1.748;2022-08-19T11:11:21;99299.28;;;19.40;51.81
69257;BME280;56376;53.356;-1.748;2022-08-19T11:13:47;99285.09;;;19.41;50.71
69257;BME280;56376;53.356;-1.748;2022-08-19T11:16:20;99284.75;;;19.45;51.18
69257;BME280;56376;53.356;-1.748;2022-08-19T11:18:52;99294.13;;;19.50;51.03
69257;BME280;56376;53.356;-1.748;2022-08-19T11:21:24;99294.63;;;19.55;50.10
69257;BME280;56376;53.356;-1.748;2022-08-19T11:23:53;99294.16;;;19.61;50.17
69257;BME280;56376;53.356;-1.748;2022-08-19T11:26:21;99289.56;;;19.63;50.33
69257;BME280;56376;53.356;-1.748;2022-08-19T11:28:48;99286.72;;;19.66;50.43
69257;BME280;56376;53.356;-1.748;2022-08-19T11:31:19;99284.69;;;19.70;50.80
69257;BME280;56376;53.356;-1.748;2022-08-19T11:33:45;99297.81;;;19.71;50.68
69257;BME280;56376;53.356;-1.748;2022-08-19T11:36:11;99292.53;;;19.71;50.72
69257;BME280;56376;53.356;-1.748;2022-08-19T11:38:37;99292.53;;;19.71;50.55
69257;BME280;56376;53.356;-1.748;2022-08-19T11:41:06;99297.19;;;19.67;50.78
69257;BME280;56376;53.356;-1.748;2022-08-19T11:43:35;99299.75;;;19.69;51.35
69257;BME280;56376;53.356;-1.748;2022-08-19T11:46:06;99296.38;;;19.67;51.16
69257;BME280;56376;53.356;-1.748;2022-08-19T11:48:35;99297.50;;;19.63;51.70
69257;BME280;56376;53.356;-1.748;2022-08-19T11:51:05;99298.13;;;19.55;51.43
69257;BME280;56376;53.356;-1.748;2022-08-19T11:53:32;99301.72;;;19.54;51.58
69257;BME280;56376;53.356;-1.748;2022-08-19T11:55:58;99305.34;;;19.53;52.34
69257;BME280;56376;53.356;-1.748;2022-08-19T11:58:23;99304.03;;;19.59;52.46
69257;BME280;56376;53.356;-1.748;2022-08-19T12:00:50;99310.06;;;19.61;52.46
69257;BME280;56376;53.356;-1.748;2022-08-19T12:03:16;99312.81;;;19.59;52.71
69257;BME280;56376;53.356;-1.748;2022-08-19T12:05:41;99307.53;;;19.59;52.85
69257;BME280;56376;53.356;-1.748;2022-08-19T12:08:07;99319.94;;;19.59;52.99
69257;BME280;56376;53.356;-1.748;2022-08-19T12:10:33;99312.72;;;19.61;53.15
69257;BME280;56376;53.356;-1.748;2022-08-19T12:13:00;99312.72;;;19.61;53.21
69257;BME280;56376;53.356;-1.748;2022-08-19T12:15:26;99322.09;;;19.65;53.58
69257;BME280;56376;53.356;-1.748;2022-08-19T12:17:53;99318.03;;;19.72;53.47
69257;BME280;56376;53.356;-1.748;2022-08-19T12:20:22;99310.56;;;19.77;52.42
69257;BME280;56376;53.356;-1.748;2022-08-19T12:22:48;99311.41;;;19.78;52.31
69257;BME280;56376;53.356;-1.748;2022-08-19T12:25:14;99308.56;;;19.81;52.32
69257;BME280;56376;53.356;-1.748;2022-08-19T12:27:40;99306.38;;;19.86;52.43
69257;BME280;56376;53.356;-1.748;2022-08-19T12:30:07;99304.22;;;19.91;51.47
69257;BME280;56376;53.356;-1.748;2022-08-19T12:32:33;99319.63;;;19.97;51.00
69257;BME280;56376;53.356;-1.748;2022-08-19T12:34:58;99323.34;;;19.95;50.68
69257;BME280;56376;53.356;-1.748;2022-08-19T12:37:24;99326.25;;;19.92;50.86
69257;BME280;56376;53.356;-1.748;2022-08-19T12:39:49;99312.53;;;19.86;50.70
69257;BME280;56376;53.356;-1.748;2022-08-19T12:42:15;99316.13;;;19.85;51.07
69257;BME280;56376;53.356;-1.748;2022-08-19T12:44:42;99305.50;;;19.85;50.89
69257;BME280;56376;53.356;-1.748;2022-08-19T12:47:09;99316.25;;;19.95;50.59
69257;BME280;56376;53.356;-1.748;2022-08-19T12:49:35;99307.22;;;20.09;50.09
69257;BME280;56376;53.356;-1.748;2022-08-19T12:52:05;99308.91;;;20.21;49.50
69257;BME280;56376;53.356;-1.748;2022-08-19T12:54:37;99309.72;;;20.33;49.94
69257;BME280;56376;53.356;-1.748;2022-08-19T12:57:07;99308.25;;;20.51;50.03
69257;BME280;56376;53.356;-1.748;2022-08-19T12:59:34;99305.78;;;20.71;48.98
69257;BME280;56376;53.356;-1.748;2022-08-19T13:02:02;99301.75;;;20.88;48.61
69257;BME280;56376;53.356;-1.748;2022-08-19T13:04:29;99305.69;;;21.05;48.46